sensor_id;sensor_type;location;lat;lon;timestamp;P1;durP1;ratioP1;P2;durP2;ratioP2
18334;SDS011;9293;49.524;10.964;2023-12-07T00:00:56;33.28;;;22.27;;
18334;SDS011;9293;49.524;10.964;2023-12-07T00:03:25;32.53;;;21.27;;
18334;SDS011;9293;49.524;10.964;2023-12-07T00:05:53;31.92;;;21.67;;
18334;SDS011;9293;49.524;10.964;2023-12-07T00:08:21;31.25;;;21.55;;
18334;SDS011;9293;49.524;10.964;2023-12-07T00:10:49;31.67;;;20.35;;
18334;SDS011;9293;49.524;10.964;2023-12-07T00:13:18;27.40;;;19.55;;
18334;SDS011;9293;49.524;10.964;2023-12-07T00:15:46;28.15;;;19.13;;
18334;SDS011;9293;49.524;10.964;2023-12-07T00:18:19;24.45;;;17.85;;
18334;SDS011;9293;49.524;10.964;2023-12-07T00:20:51;22.67;;;16.77;;
18334;SDS011;9293;49.524;10.964;2023-12-07T00:23:20;23.77;;;17.05;;
18334;SDS011;9293;49.524;10.964;2023-12-07T00:25:48;22.30;;;16.27;;
18334;SDS011;9293;49.524;10.964;2023-12-07T00:28:19;21.55;;;16.67;;
18334;SDS011;9293;49.524;10.964;2023-12-07T00:30:47;21.50;;;15.75;;
18334;SDS011;9293;49.524;10.964;2023-12-07T00:33:16;21.88;;;15.65;;
18334;SDS011;9293;49.524;10.964;2023-12-07T00:35:44;21.00;;;15.85;;
18334;SDS011;9293;49.524;10.964;2023-12-07T00:38:13;18.83;;;15.48;;
18334;SDS011;9293;49.524;10.964;2023-12-07T00:40:41;18.73;;;15.23;;
18334;SDS011;9293;49.524;10.964;2023-12-07T00:43:09;21.42;;;16.05;;
18334;SDS011;9293;49.524;10.964;2023-12-07T00:45:38;23.77;;;15.73;;
18334;SDS011;9293;49.524;10.964;2023-12-07T00:48:06;20.02;;;15.23;;
18334;SDS011;9293;49.524;10.964;2023-12-07T00:50:34;23.05;;;15.60;;
18334;SDS011;9293;49.524;10.964;2023-12-07T00:53:02;19.10;;;14.85;;
18334;SDS011;9293;49.524;10.964;2023-12-07T00:55:31;20.38;;;14.82;;
18334;SDS011;9293;49.524;10.964;2023-12-07T00:57:59;18.55;;;13.80;;
18334;SDS011;9293;49.524;10.964;2023-12-07T01:00:29;19.35;;;15.25;;
18334;SDS011;9293;49.524;10.964;2023-12-07T01:02:57;19.70;;;15.07;;
18334;SDS011;9293;49.524;10.964;2023-12-07T01:05:25;17.52;;;13.48;;
18334;SDS011;9293;49.524;10.964;2023-12-07T01:07:54;20.35;;;14.90;;
18334;SDS011;9293;49.524;10.964;2023-12-07T01:10:22;20.00;;;14.82;;
18334;SDS011;9293;49.524;10.964;2023-12-07T01:12:50;18.73;;;14.40;;
18334;SDS011;9293;49.524;10.964;2023-12-07T01:15:19;19.13;;;13.80;;
18334;SDS011;9293;49.524;10.964;2023-12-07T01:17:47;19.58;;;13.60;;
18334;SDS011;9293;49.524;10.964;2023-12-07T01:20:15;17.83;;;13.88;;
18334;SDS011;9293;49.524;10.964;2023-12-07T01:22:44;19.77;;;14.23;;
18334;SDS011;9293;49.524;10.964;2023-12-07T01:25:13;16.98;;;13.20;;
18334;SDS011;9293;49.524;10.964;2023-12-07T01:27:48;20.08;;;13.98;;
18334;SDS011;9293;49.524;10.964;2023-12-07T01:30:16;17.75;;;13.93;;
18334;SDS011;9293;49.524;10.964;2023-12-07T01:32:45;18.52;;;13.52;;
18334;SDS011;9293;49.524;10.964;2023-12-07T01:35:13;19.15;;;14.00;;
18334;SDS011;9293;49.524;10.964;2023-12-07T01:37:41;17.42;;;13.40;;
18334;SDS011;9293;49.524;10.964;2023-12-07T01:40:10;19.15;;;13.57;;
18334;SDS011;9293;49.524;10.964;2023-12-07T01:42:38;18.55;;;13.25;;
18334;SDS011;9293;49.524;10.964;2023-12-07T01:45:06;17.42;;;12.85;;
18334;SDS011;9293;49.524;10.964;2023-12-07T01:47:35;20.40;;;14.73;;
18334;SDS011;9293;49.524;10.964;2023-12-07T01:50:05;17.08;;;14.10;;
18334;SDS011;9293;49.524;10.964;2023-12-07T01:52:35;18.80;;;13.63;;
18334;SDS011;9293;49.524;10.964;2023-12-07T01:55:11;19.85;;;14.30;;
18334;SDS011;9293;49.524;10.964;2023-12-07T01:57:41;20.92;;;14.10;;
18334;SDS011;9293;49.524;10.964;2023-12-07T02:00:14;19.45;;;14.07;;
18334;SDS011;9293;49.524;10.964;2023-12-07T02:02:44;20.70;;;15.13;;
18334;SDS011;9293;49.524;10.964;2023-12-07T02:05:13;19.83;;;14.02;;
18334;SDS011;9293;49.524;10.964;2023-12-07T02:07:42;17.77;;;13.60;;
18334;SDS011;9293;49.524;10.964;2023-12-07T02:10:10;18.50;;;13.10;;
18334;SDS011;9293;49.524;10.964;2023-12-07T02:12:41;17.60;;;13.25;;
18334;SDS011;9293;49.524;10.964;2023-12-07T02:15:09;18.55;;;13.20;;
18334;SDS011;9293;49.524;10.964;2023-12-07T02:20:26;16.10;;;12.43;;
18334;SDS011;9293;49.524;10.964;2023-12-07T02:22:59;19.63;;;13.40;;
18334;SDS011;9293;49.524;10.964;2023-12-07T02:25:35;18.88;;;14.07;;
18334;SDS011;9293;49.524;10.964;2023-12-07T02:28:26;16.40;;;13.20;;
18334;SDS011;9293;49.524;10.964;2023-12-07T02:30:55;19.80;;;13.80;;
18334;SDS011;9293;49.524;10.964;2023-12-07T02:33:23;17.13;;;13.23;;
18334;SDS011;9293;49.524;10.964;2023-12-07T02:35:52;18.52;;;13.48;;
18334;SDS011;9293;49.524;10.964;2023-12-07T02:38:20;18.73;;;13.13;;
18334;SDS011;9293;49.524;10.964;2023-12-07T02:40:54;18.40;;;13.15;;
18334;SDS011;9293;49.524;10.964;2023-12-07T02:43:23;18.60;;;12.93;;
18334;SDS011;9293;49.524;10.964;2023-12-07T02:45:51;19.13;;;14.02;;
18334;SDS011;9293;49.524;10.964;2023-12-07T02:48:20;17.08;;;12.70;;
18334;SDS011;9293;49.524;10.964;2023-12-07T02:50:49;18.60;;;12.57;;
18334;SDS011;9293;49.524;10.964;2023-12-07T02:53:17;18.08;;;13.00;;
18334;SDS011;9293;49.524;10.964;2023-12-07T02:55:45;18.50;;;13.02;;
18334;SDS011;9293;49.524;10.964;2023-12-07T02:58:14;19.02;;;13.13;;
18334;SDS011;9293;49.524;10.964;2023-12-07T03:00:42;17.88;;;12.70;;
18334;SDS011;9293;49.524;10.964;2023-12-07T03:03:11;18.80;;;12.52;;
18334;SDS011;9293;49.524;10.964;2023-12-07T03:05:39;17.77;;;12.80;;
18334;SDS011;9293;49.524;10.964;2023-12-07T03:08:07;17.90;;;13.75;;
18334;SDS011;9293;49.524;10.964;2023-12-07T03:10:35;20.95;;;13.40;;
18334;SDS011;9293;49.524;10.964;2023-12-07T03:13:04;18.10;;;13.40;;
18334;SDS011;9293;49.524;10.964;2023-12-07T03:15:32;16.42;;;12.57;;
18334;SDS011;9293;49.524;10.964;2023-12-07T03:18:00;18.45;;;13.55;;
18334;SDS011;9293;49.524;10.964;2023-12-07T03:20:29;16.50;;;12.93;;
18334;SDS011;9293;49.524;10.964;2023-12-07T03:22:57;18.95;;;14.70;;
18334;SDS011;9293;49.524;10.964;2023-12-07T03:25:26;18.60;;;13.18;;
18334;SDS011;9293;49.524;10.964;2023-12-07T03:27:54;21.48;;;14.20;;
18334;SDS011;9293;49.524;10.964;2023-12-07T03:30:22;19.67;;;14.82;;
18334;SDS011;9293;49.524;10.964;2023-12-07T03:32:51;20.77;;;14.48;;
18334;SDS011;9293;49.524;10.964;2023-12-07T03:35:19;23.92;;;15.73;;
18334;SDS011;9293;49.524;10.964;2023-12-07T03:37:47;19.30;;;14.18;;
18334;SDS011;9293;49.524;10.964;2023-12-07T03:40:16;20.17;;;14.82;;
18334;SDS011;9293;49.524;10.964;2023-12-07T03:42:44;21.70;;;15.27;;
18334;SDS011;9293;49.524;10.964;2023-12-07T03:45:25;20.35;;;14.77;;
18334;SDS011;9293;49.524;10.964;2023-12-07T03:50:22;21.98;;;14.38;;
18334;SDS011;9293;49.524;10.964;2023-12-07T03:52:51;18.33;;;13.57;;
18334;SDS011;9293;49.524;10.964;2023-12-07T03:55:19;20.15;;;15.40;;
18334;SDS011;9293;49.524;10.964;2023-12-07T03:57:47;21.67;;;15.50;;
18334;SDS011;9293;49.524;10.964;2023-12-07T04:00:16;21.02;;;14.40;;
18334;SDS011;9293;49.524;10.964;2023-12-07T04:02:44;25.80;;;16.42;;
18334;SDS011;9293;49.524;10.964;2023-12-07T04:05:13;17.85;;;14.25;;
18334;SDS011;9293;49.524;10.964;2023-12-07T04:07:41;19.88;;;14.32;;
18334;SDS011;9293;49.524;10.964;2023-12-07T04:10:09;24.08;;;16.08;;
18334;SDS011;9293;49.524;10.964;2023-12-07T04:12:38;22.75;;;15.60;;
18334;SDS011;9293;49.524;10.964;2023-12-07T04:15:07;19.92;;;14.52;;
18334;SDS011;9293;49.524;10.964;2023-12-07T04:17:35;24.88;;;15.48;;
18334;SDS011;9293;49.524;10.964;2023-12-07T04:20:04;25.25;;;17.27;;
18334;SDS011;9293;49.524;10.964;2023-12-07T04:22:32;23.25;;;16.60;;
18334;SDS011;9293;49.524;10.964;2023-12-07T04:25:01;21.90;;;15.50;;
18334;SDS011;9293;49.524;10.964;2023-12-07T04:27:29;25.08;;;17.00;;
18334;SDS011;9293;49.524;10.964;2023-12-07T04:29:57;25.75;;;17.30;;
18334;SDS011;9293;49.524;10.964;2023-12-07T04:32:26;26.42;;;17.85;;
18334;SDS011;9293;49.524;10.964;2023-12-07T04:34:54;23.33;;;16.95;;
18334;SDS011;9293;49.524;10.964;2023-12-07T04:37:23;24.98;;;17.38;;
18334;SDS011;9293;49.524;10.964;2023-12-07T04:39:51;22.00;;;15.95;;
18334;SDS011;9293;49.524;10.964;2023-12-07T04:42:19;28.35;;;18.90;;
18334;SDS011;9293;49.524;10.964;2023-12-07T04:44:48;25.65;;;18.13;;
18334;SDS011;9293;49.524;10.964;2023-12-07T04:47:16;25.88;;;17.55;;
18334;SDS011;9293;49.524;10.964;2023-12-07T04:49:45;23.38;;;15.70;;
18334;SDS011;9293;49.524;10.964;2023-12-07T04:52:14;22.55;;;16.65;;
18334;SDS011;9293;49.524;10.964;2023-12-07T04:54:42;28.05;;;17.17;;
18334;SDS011;9293;49.524;10.964;2023-12-07T04:57:11;21.17;;;15.52;;
18334;SDS011;9293;49.524;10.964;2023-12-07T04:59:39;22.38;;;16.25;;
18334;SDS011;9293;49.524;10.964;2023-12-07T05:02:08;25.02;;;16.40;;
18334;SDS011;9293;49.524;10.964;2023-12-07T05:04:36;22.95;;;15.75;;
18334;SDS011;9293;49.524;10.964;2023-12-07T05:07:05;24.80;;;16.42;;
18334;SDS011;9293;49.524;10.964;2023-12-07T05:09:33;26.50;;;17.17;;
18334;SDS011;9293;49.524;10.964;2023-12-07T05:12:01;32.17;;;18.73;;
18334;SDS011;9293;49.524;10.964;2023-12-07T05:14:30;28.00;;;17.25;;
18334;SDS011;9293;49.524;10.964;2023-12-07T05:16:59;28.27;;;17.63;;
18334;SDS011;9293;49.524;10.964;2023-12-07T05:19:27;28.55;;;19.10;;
18334;SDS011;9293;49.524;10.964;2023-12-07T05:21:55;27.98;;;18.92;;
18334;SDS011;9293;49.524;10.964;2023-12-07T05:24:24;24.08;;;17.25;;
18334;SDS011;9293;49.524;10.964;2023-12-07T05:26:53;27.85;;;17.92;;
18334;SDS011;9293;49.524;10.964;2023-12-07T05:29:21;23.88;;;16.65;;
18334;SDS011;9293;49.524;10.964;2023-12-07T05:31:51;27.23;;;18.02;;
18334;SDS011;9293;49.524;10.964;2023-12-07T05:34:20;28.85;;;18.80;;
18334;SDS011;9293;49.524;10.964;2023-12-07T05:36:48;30.38;;;19.02;;
18334;SDS011;9293;49.524;10.964;2023-12-07T05:39:16;27.58;;;18.42;;
18334;SDS011;9293;49.524;10.964;2023-12-07T05:41:54;28.90;;;18.67;;
18334;SDS011;9293;49.524;10.964;2023-12-07T05:44:23;27.73;;;18.60;;
18334;SDS011;9293;49.524;10.964;2023-12-07T05:46:51;24.95;;;18.10;;
18334;SDS011;9293;49.524;10.964;2023-12-07T05:49:20;29.00;;;19.02;;
18334;SDS011;9293;49.524;10.964;2023-12-07T05:51:50;31.95;;;19.13;;
18334;SDS011;9293;49.524;10.964;2023-12-07T05:54:20;27.95;;;18.52;;
18334;SDS011;9293;49.524;10.964;2023-12-07T05:56:49;27.27;;;17.73;;
18334;SDS011;9293;49.524;10.964;2023-12-07T05:59:18;30.35;;;19.10;;
18334;SDS011;9293;49.524;10.964;2023-12-07T06:01:46;31.85;;;19.58;;
18334;SDS011;9293;49.524;10.964;2023-12-07T06:04:14;29.85;;;18.00;;
18334;SDS011;9293;49.524;10.964;2023-12-07T06:06:43;28.08;;;19.35;;
18334;SDS011;9293;49.524;10.964;2023-12-07T06:09:12;26.08;;;17.77;;
18334;SDS011;9293;49.524;10.964;2023-12-07T06:11:40;29.67;;;18.65;;
18334;SDS011;9293;49.524;10.964;2023-12-07T06:14:08;33.83;;;18.90;;
18334;SDS011;9293;49.524;10.964;2023-12-07T06:16:37;27.17;;;17.77;;
18334;SDS011;9293;49.524;10.964;2023-12-07T06:19:05;28.50;;;18.95;;
18334;SDS011;9293;49.524;10.964;2023-12-07T06:21:33;26.17;;;17.98;;
18334;SDS011;9293;49.524;10.964;2023-12-07T06:24:01;28.15;;;18.67;;
18334;SDS011;9293;49.524;10.964;2023-12-07T06:26:30;28.88;;;18.52;;
18334;SDS011;9293;49.524;10.964;2023-12-07T06:28:58;33.35;;;19.80;;
18334;SDS011;9293;49.524;10.964;2023-12-07T06:31:26;29.05;;;18.58;;
18334;SDS011;9293;49.524;10.964;2023-12-07T06:33:55;26.55;;;18.13;;
18334;SDS011;9293;49.524;10.964;2023-12-07T06:36:23;30.13;;;19.15;;
18334;SDS011;9293;49.524;10.964;2023-12-07T06:38:53;28.15;;;18.23;;
18334;SDS011;9293;49.524;10.964;2023-12-07T06:41:25;26.17;;;18.35;;
18334;SDS011;9293;49.524;10.964;2023-12-07T06:43:54;26.88;;;17.20;;
18334;SDS011;9293;49.524;10.964;2023-12-07T06:46:24;25.38;;;17.85;;
18334;SDS011;9293;49.524;10.964;2023-12-07T06:48:53;27.83;;;18.27;;
18334;SDS011;9293;49.524;10.964;2023-12-07T06:51:22;27.67;;;18.63;;
18334;SDS011;9293;49.524;10.964;2023-12-07T06:53:50;28.77;;;18.33;;
18334;SDS011;9293;49.524;10.964;2023-12-07T06:56:18;26.50;;;17.55;;
18334;SDS011;9293;49.524;10.964;2023-12-07T06:58:47;24.25;;;16.90;;
18334;SDS011;9293;49.524;10.964;2023-12-07T07:01:15;59.08;;;25.33;;
18334;SDS011;9293;49.524;10.964;2023-12-07T07:03:43;39.65;;;22.75;;
18334;SDS011;9293;49.524;10.964;2023-12-07T07:06:12;48.53;;;23.85;;
18334;SDS011;9293;49.524;10.964;2023-12-07T07:08:40;55.50;;;21.30;;
18334;SDS011;9293;49.524;10.964;2023-12-07T07:11:12;61.78;;;18.13;;
18334;SDS011;9293;49.524;10.964;2023-12-07T07:13:44;29.80;;;17.17;;
18334;SDS011;9293;49.524;10.964;2023-12-07T07:16:12;28.98;;;16.45;;
18334;SDS011;9293;49.524;10.964;2023-12-07T07:18:42;33.25;;;17.52;;
18334;SDS011;9293;49.524;10.964;2023-12-07T07:21:10;39.22;;;20.80;;
18334;SDS011;9293;49.524;10.964;2023-12-07T07:23:38;28.58;;;17.95;;
18334;SDS011;9293;49.524;10.964;2023-12-07T07:26:07;33.75;;;19.58;;
18334;SDS011;9293;49.524;10.964;2023-12-07T07:28:36;32.60;;;20.55;;
18334;SDS011;9293;49.524;10.964;2023-12-07T07:31:04;32.88;;;20.10;;
18334;SDS011;9293;49.524;10.964;2023-12-07T07:33:32;30.30;;;17.48;;
18334;SDS011;9293;49.524;10.964;2023-12-07T07:36:01;27.98;;;18.83;;
18334;SDS011;9293;49.524;10.964;2023-12-07T07:38:29;27.63;;;19.10;;
18334;SDS011;9293;49.524;10.964;2023-12-07T07:40:57;26.70;;;20.52;;
18334;SDS011;9293;49.524;10.964;2023-12-07T07:43:26;28.25;;;19.52;;
18334;SDS011;9293;49.524;10.964;2023-12-07T07:45:54;27.52;;;18.92;;
18334;SDS011;9293;49.524;10.964;2023-12-07T07:48:23;27.38;;;18.55;;
18334;SDS011;9293;49.524;10.964;2023-12-07T07:50:53;26.40;;;18.77;;
18334;SDS011;9293;49.524;10.964;2023-12-07T07:53:22;26.02;;;18.60;;
18334;SDS011;9293;49.524;10.964;2023-12-07T07:55:50;34.35;;;20.17;;
18334;SDS011;9293;49.524;10.964;2023-12-07T07:58:18;28.80;;;20.38;;
18334;SDS011;9293;49.524;10.964;2023-12-07T08:00:47;30.23;;;21.05;;
18334;SDS011;9293;49.524;10.964;2023-12-07T08:03:15;29.45;;;21.42;;
18334;SDS011;9293;49.524;10.964;2023-12-07T08:05:44;26.30;;;19.02;;
18334;SDS011;9293;49.524;10.964;2023-12-07T08:08:12;27.13;;;18.48;;
18334;SDS011;9293;49.524;10.964;2023-12-07T08:10:41;31.92;;;21.17;;
18334;SDS011;9293;49.524;10.964;2023-12-07T08:13:21;27.95;;;20.45;;
18334;SDS011;9293;49.524;10.964;2023-12-07T08:15:50;29.83;;;20.40;;
18334;SDS011;9293;49.524;10.964;2023-12-07T08:18:23;29.45;;;20.55;;
18334;SDS011;9293;49.524;10.964;2023-12-07T08:20:53;29.40;;;20.67;;
18334;SDS011;9293;49.524;10.964;2023-12-07T08:23:21;27.42;;;20.65;;
18334;SDS011;9293;49.524;10.964;2023-12-07T08:25:49;28.17;;;20.30;;
18334;SDS011;9293;49.524;10.964;2023-12-07T08:28:17;33.13;;;22.55;;
18334;SDS011;9293;49.524;10.964;2023-12-07T08:30:48;28.48;;;20.35;;
18334;SDS011;9293;49.524;10.964;2023-12-07T08:33:16;29.92;;;21.05;;
18334;SDS011;9293;49.524;10.964;2023-12-07T08:35:45;34.00;;;22.92;;
18334;SDS011;9293;49.524;10.964;2023-12-07T08:38:17;31.92;;;23.33;;
18334;SDS011;9293;49.524;10.964;2023-12-07T08:40:45;29.58;;;22.35;;
18334;SDS011;9293;49.524;10.964;2023-12-07T08:43:13;37.88;;;28.98;;
18334;SDS011;9293;49.524;10.964;2023-12-07T08:45:42;33.40;;;23.13;;
18334;SDS011;9293;49.524;10.964;2023-12-07T08:48:10;30.10;;;22.08;;
18334;SDS011;9293;49.524;10.964;2023-12-07T08:50:39;26.45;;;19.77;;
18334;SDS011;9293;49.524;10.964;2023-12-07T08:53:08;30.35;;;21.95;;
18334;SDS011;9293;49.524;10.964;2023-12-07T08:55:37;27.42;;;21.15;;
18334;SDS011;9293;49.524;10.964;2023-12-07T08:58:05;63.28;;;42.67;;
18334;SDS011;9293;49.524;10.964;2023-12-07T09:00:34;68.45;;;49.38;;
18334;SDS011;9293;49.524;10.964;2023-12-07T09:03:02;31.63;;;25.35;;
18334;SDS011;9293;49.524;10.964;2023-12-07T09:05:31;49.45;;;36.03;;
18334;SDS011;9293;49.524;10.964;2023-12-07T09:07:59;37.17;;;28.63;;
18334;SDS011;9293;49.524;10.964;2023-12-07T09:10:27;35.38;;;27.08;;
18334;SDS011;9293;49.524;10.964;2023-12-07T09:12:56;33.20;;;23.38;;
18334;SDS011;9293;49.524;10.964;2023-12-07T09:15:24;31.38;;;22.67;;
18334;SDS011;9293;49.524;10.964;2023-12-07T09:17:53;31.50;;;22.08;;
18334;SDS011;9293;49.524;10.964;2023-12-07T09:20:22;30.58;;;23.88;;
18334;SDS011;9293;49.524;10.964;2023-12-07T09:22:50;32.00;;;24.25;;
18334;SDS011;9293;49.524;10.964;2023-12-07T09:25:19;28.92;;;22.73;;
18334;SDS011;9293;49.524;10.964;2023-12-07T09:27:47;28.40;;;23.83;;
18334;SDS011;9293;49.524;10.964;2023-12-07T09:30:15;29.85;;;22.40;;
18334;SDS011;9293;49.524;10.964;2023-12-07T09:32:44;31.05;;;22.90;;
18334;SDS011;9293;49.524;10.964;2023-12-07T09:35:13;31.35;;;24.45;;
18334;SDS011;9293;49.524;10.964;2023-12-07T09:37:42;31.15;;;22.65;;
18334;SDS011;9293;49.524;10.964;2023-12-07T09:40:15;33.58;;;23.30;;
18334;SDS011;9293;49.524;10.964;2023-12-07T09:42:48;31.40;;;23.30;;
18334;SDS011;9293;49.524;10.964;2023-12-07T09:45:18;31.50;;;23.00;;
18334;SDS011;9293;49.524;10.964;2023-12-07T09:47:48;33.45;;;24.17;;
18334;SDS011;9293;49.524;10.964;2023-12-07T09:50:19;32.17;;;23.08;;
18334;SDS011;9293;49.524;10.964;2023-12-07T09:52:54;30.88;;;23.13;;
18334;SDS011;9293;49.524;10.964;2023-12-07T09:55:34;32.17;;;24.23;;
18334;SDS011;9293;49.524;10.964;2023-12-07T09:58:04;28.58;;;22.75;;
18334;SDS011;9293;49.524;10.964;2023-12-07T10:00:38;29.83;;;22.08;;
18334;SDS011;9293;49.524;10.964;2023-12-07T10:03:06;32.33;;;23.83;;
18334;SDS011;9293;49.524;10.964;2023-12-07T10:08:30;26.00;;;19.33;;
18334;SDS011;9293;49.524;10.964;2023-12-07T10:11:04;30.95;;;21.55;;
18334;SDS011;9293;49.524;10.964;2023-12-07T10:13:34;27.05;;;21.08;;
18334;SDS011;9293;49.524;10.964;2023-12-07T10:16:10;28.70;;;19.95;;
18334;SDS011;9293;49.524;10.964;2023-12-07T10:18:44;29.20;;;20.00;;
18334;SDS011;9293;49.524;10.964;2023-12-07T10:21:13;27.27;;;20.85;;
18334;SDS011;9293;49.524;10.964;2023-12-07T10:23:42;28.50;;;20.55;;
18334;SDS011;9293;49.524;10.964;2023-12-07T10:26:15;28.60;;;20.25;;
18334;SDS011;9293;49.524;10.964;2023-12-07T10:28:50;25.20;;;19.50;;
18334;SDS011;9293;49.524;10.964;2023-12-07T10:31:22;26.38;;;18.92;;
18334;SDS011;9293;49.524;10.964;2023-12-07T10:33:51;26.98;;;19.42;;
18334;SDS011;9293;49.524;10.964;2023-12-07T10:36:20;27.70;;;20.48;;
18334;SDS011;9293;49.524;10.964;2023-12-07T10:38:49;27.23;;;19.08;;
18334;SDS011;9293;49.524;10.964;2023-12-07T10:41:19;24.58;;;20.10;;
18334;SDS011;9293;49.524;10.964;2023-12-07T10:43:51;25.70;;;20.30;;
18334;SDS011;9293;49.524;10.964;2023-12-07T10:46:21;23.50;;;17.52;;
18334;SDS011;9293;49.524;10.964;2023-12-07T10:48:55;21.27;;;17.52;;
18334;SDS011;9293;49.524;10.964;2023-12-07T10:51:34;23.38;;;17.17;;
18334;SDS011;9293;49.524;10.964;2023-12-07T10:54:04;23.17;;;17.30;;
18334;SDS011;9293;49.524;10.964;2023-12-07T10:56:44;22.30;;;17.23;;
18334;SDS011;9293;49.524;10.964;2023-12-07T10:59:13;21.85;;;17.20;;
18334;SDS011;9293;49.524;10.964;2023-12-07T11:01:56;23.45;;;17.27;;
18334;SDS011;9293;49.524;10.964;2023-12-07T11:04:25;21.63;;;16.60;;
18334;SDS011;9293;49.524;10.964;2023-12-07T11:06:55;24.42;;;17.27;;
18334;SDS011;9293;49.524;10.964;2023-12-07T11:09:31;23.08;;;17.42;;
18334;SDS011;9293;49.524;10.964;2023-12-07T11:12:12;21.65;;;16.27;;
18334;SDS011;9293;49.524;10.964;2023-12-07T11:14:46;19.08;;;15.73;;
18334;SDS011;9293;49.524;10.964;2023-12-07T11:17:15;20.90;;;15.60;;
18334;SDS011;9293;49.524;10.964;2023-12-07T11:19:44;20.95;;;16.15;;
18334;SDS011;9293;49.524;10.964;2023-12-07T11:22:14;19.40;;;15.57;;
18334;SDS011;9293;49.524;10.964;2023-12-07T11:24:52;18.20;;;14.70;;
18334;SDS011;9293;49.524;10.964;2023-12-07T11:27:21;21.77;;;15.48;;
18334;SDS011;9293;49.524;10.964;2023-12-07T11:29:50;16.73;;;14.18;;
18334;SDS011;9293;49.524;10.964;2023-12-07T11:32:19;18.70;;;15.13;;
18334;SDS011;9293;49.524;10.964;2023-12-07T11:34:54;19.73;;;15.23;;
18334;SDS011;9293;49.524;10.964;2023-12-07T11:37:27;17.40;;;13.85;;
18334;SDS011;9293;49.524;10.964;2023-12-07T11:40:35;17.92;;;14.20;;
18334;SDS011;9293;49.524;10.964;2023-12-07T11:43:19;18.55;;;13.90;;
18334;SDS011;9293;49.524;10.964;2023-12-07T11:46:01;17.33;;;13.13;;
18334;SDS011;9293;49.524;10.964;2023-12-07T11:48:29;18.85;;;13.52;;
18334;SDS011;9293;49.524;10.964;2023-12-07T11:50:58;15.60;;;12.95;;
18334;SDS011;9293;49.524;10.964;2023-12-07T11:53:32;16.20;;;12.93;;
18334;SDS011;9293;49.524;10.964;2023-12-07T11:56:02;17.38;;;12.82;;
18334;SDS011;9293;49.524;10.964;2023-12-07T11:58:33;17.43;;;12.53;;
18334;SDS011;9293;49.524;10.964;2023-12-07T12:01:06;15.85;;;13.75;;
18334;SDS011;9293;49.524;10.964;2023-12-07T12:03:35;17.20;;;13.75;;
18334;SDS011;9293;49.524;10.964;2023-12-07T12:06:05;18.58;;;13.63;;
18334;SDS011;9293;49.524;10.964;2023-12-07T12:08:36;19.35;;;15.65;;
18334;SDS011;9293;49.524;10.964;2023-12-07T12:11:04;20.95;;;15.68;;
18334;SDS011;9293;49.524;10.964;2023-12-07T12:13:36;18.63;;;13.38;;
18334;SDS011;9293;49.524;10.964;2023-12-07T12:16:06;18.35;;;13.82;;
18334;SDS011;9293;49.524;10.964;2023-12-07T12:18:34;20.65;;;14.02;;
18334;SDS011;9293;49.524;10.964;2023-12-07T12:21:07;17.38;;;13.73;;
18334;SDS011;9293;49.524;10.964;2023-12-07T12:23:44;14.95;;;12.02;;
18334;SDS011;9293;49.524;10.964;2023-12-07T12:26:15;17.02;;;13.35;;
18334;SDS011;9293;49.524;10.964;2023-12-07T12:28:45;18.27;;;12.75;;
18334;SDS011;9293;49.524;10.964;2023-12-07T12:31:14;18.63;;;15.25;;
18334;SDS011;9293;49.524;10.964;2023-12-07T12:33:43;57.80;;;37.65;;
18334;SDS011;9293;49.524;10.964;2023-12-07T12:36:11;19.10;;;14.50;;
18334;SDS011;9293;49.524;10.964;2023-12-07T12:38:40;21.45;;;16.08;;
18334;SDS011;9293;49.524;10.964;2023-12-07T12:41:10;21.10;;;16.00;;
18334;SDS011;9293;49.524;10.964;2023-12-07T12:43:40;15.20;;;13.45;;
18334;SDS011;9293;49.524;10.964;2023-12-07T12:46:14;21.67;;;15.30;;
18334;SDS011;9293;49.524;10.964;2023-12-07T12:48:56;62.00;;;34.75;;
18334;SDS011;9293;49.524;10.964;2023-12-07T12:51:27;14.75;;;11.02;;
18334;SDS011;9293;49.524;10.964;2023-12-07T12:53:57;14.35;;;10.32;;
18334;SDS011;9293;49.524;10.964;2023-12-07T12:56:27;15.52;;;11.82;;
18334;SDS011;9293;49.524;10.964;2023-12-07T12:58:56;15.68;;;12.27;;
18334;SDS011;9293;49.524;10.964;2023-12-07T13:01:32;14.15;;;10.77;;
18334;SDS011;9293;49.524;10.964;2023-12-07T13:04:01;12.25;;;9.57;;
18334;SDS011;9293;49.524;10.964;2023-12-07T13:06:34;12.75;;;9.95;;
18334;SDS011;9293;49.524;10.964;2023-12-07T13:09:03;15.65;;;10.73;;
18334;SDS011;9293;49.524;10.964;2023-12-07T13:11:31;17.80;;;15.90;;
18334;SDS011;9293;49.524;10.964;2023-12-07T13:13:59;21.55;;;17.27;;
18334;SDS011;9293;49.524;10.964;2023-12-07T13:16:35;21.98;;;17.42;;
18334;SDS011;9293;49.524;10.964;2023-12-07T13:19:03;21.08;;;16.25;;
18334;SDS011;9293;49.524;10.964;2023-12-07T13:21:32;21.92;;;16.30;;
18334;SDS011;9293;49.524;10.964;2023-12-07T13:24:00;22.23;;;18.67;;
18334;SDS011;9293;49.524;10.964;2023-12-07T13:26:32;29.40;;;22.10;;
18334;SDS011;9293;49.524;10.964;2023-12-07T13:29:00;27.25;;;23.00;;
18334;SDS011;9293;49.524;10.964;2023-12-07T13:31:29;32.85;;;21.02;;
18334;SDS011;9293;49.524;10.964;2023-12-07T13:33:57;27.13;;;23.38;;
18334;SDS011;9293;49.524;10.964;2023-12-07T13:36:31;26.38;;;20.48;;
18334;SDS011;9293;49.524;10.964;2023-12-07T13:39:01;26.00;;;21.77;;
18334;SDS011;9293;49.524;10.964;2023-12-07T13:41:34;24.20;;;20.10;;
18334;SDS011;9293;49.524;10.964;2023-12-07T13:44:03;25.70;;;18.85;;
18334;SDS011;9293;49.524;10.964;2023-12-07T13:46:32;25.67;;;20.05;;
18334;SDS011;9293;49.524;10.964;2023-12-07T13:49:01;22.60;;;17.90;;
18334;SDS011;9293;49.524;10.964;2023-12-07T13:51:34;16.25;;;11.88;;
18334;SDS011;9293;49.524;10.964;2023-12-07T13:54:03;17.52;;;12.40;;
18334;SDS011;9293;49.524;10.964;2023-12-07T13:56:38;18.00;;;12.00;;
18334;SDS011;9293;49.524;10.964;2023-12-07T13:59:09;18.55;;;12.15;;
18334;SDS011;9293;49.524;10.964;2023-12-07T14:01:39;12.60;;;10.23;;
18334;SDS011;9293;49.524;10.964;2023-12-07T14:04:08;16.33;;;11.23;;
18334;SDS011;9293;49.524;10.964;2023-12-07T14:06:43;13.40;;;12.00;;
18334;SDS011;9293;49.524;10.964;2023-12-07T14:09:11;17.75;;;12.55;;
18334;SDS011;9293;49.524;10.964;2023-12-07T14:11:40;14.98;;;11.70;;
18334;SDS011;9293;49.524;10.964;2023-12-07T14:14:08;15.70;;;11.65;;
18334;SDS011;9293;49.524;10.964;2023-12-07T14:16:36;13.77;;;12.07;;
18334;SDS011;9293;49.524;10.964;2023-12-07T14:19:24;17.52;;;11.05;;
18334;SDS011;9293;49.524;10.964;2023-12-07T14:21:55;20.75;;;13.02;;
18334;SDS011;9293;49.524;10.964;2023-12-07T14:24:24;16.45;;;11.48;;
18334;SDS011;9293;49.524;10.964;2023-12-07T14:26:53;17.75;;;11.98;;
18334;SDS011;9293;49.524;10.964;2023-12-07T14:29:22;16.40;;;12.32;;
18334;SDS011;9293;49.524;10.964;2023-12-07T14:31:53;17.95;;;12.10;;
18334;SDS011;9293;49.524;10.964;2023-12-07T14:34:22;22.77;;;13.77;;
18334;SDS011;9293;49.524;10.964;2023-12-07T14:37:00;24.10;;;14.30;;
18334;SDS011;9293;49.524;10.964;2023-12-07T14:39:36;17.92;;;13.95;;
18334;SDS011;9293;49.524;10.964;2023-12-07T14:42:06;22.98;;;15.77;;
18334;SDS011;9293;49.524;10.964;2023-12-07T14:44:35;21.17;;;16.30;;